createdAt,value
2018-01-25T00:00:36.109Z,8.19
2018-01-25T00:03:03.575Z,7.98
2018-01-25T00:05:30.961Z,7.96
2018-01-25T00:07:58.368Z,7.95
2018-01-25T00:10:26.183Z,8.05
2018-01-25T00:12:54.252Z,8.01
2018-01-25T00:15:21.736Z,8.06
2018-01-25T00:17:49.144Z,8.11
2018-01-25T00:20:16.544Z,8.02
2018-01-25T00:22:44.015Z,8.01
2018-01-25T00:25:11.416Z,8.05
2018-01-25T00:27:38.899Z,8.02
2018-01-25T00:30:06.298Z,8.06
2018-01-25T00:32:33.687Z,8.22
2018-01-25T00:35:01.109Z,8.27
2018-01-25T00:37:28.500Z,8.07
2018-01-25T00:39:55.928Z,8.13
2018-01-25T00:42:23.317Z,8.02
2018-01-25T00:44:50.728Z,8.07
2018-01-25T00:47:18.196Z,8.17
2018-01-25T00:49:45.597Z,8.13
2018-01-25T00:52:12.992Z,8.15
2018-01-25T00:54:40.407Z,8.14
2018-01-25T00:57:08.332Z,8.28
2018-01-25T00:59:35.732Z,8.39
2018-01-25T01:02:03.137Z,8.39
2018-01-25T01:04:30.546Z,8.59
2018-01-25T01:06:57.949Z,8.70
2018-01-25T01:09:25.359Z,8.80
2018-01-25T01:11:52.744Z,8.72
2018-01-25T01:14:20.153Z,8.72
2018-01-25T01:16:48.385Z,8.71
2018-01-25T01:19:15.795Z,8.82
2018-01-25T01:21:43.205Z,8.86
2018-01-25T01:24:10.617Z,8.70
2018-01-25T01:26:38.018Z,8.72
2018-01-25T01:29:05.424Z,8.75
2018-01-25T01:31:32.816Z,8.99
2018-01-25T01:34:00.223Z,8.95
2018-01-25T01:36:27.627Z,8.98
2018-01-25T01:38:55.020Z,8.83
2018-01-25T01:41:22.433Z,8.80
2018-01-25T01:43:49.835Z,8.77
2018-01-25T01:46:17.252Z,8.84
2018-01-25T01:48:44.632Z,8.79
2018-01-25T01:51:12.036Z,8.82
2018-01-25T01:53:39.442Z,9.00
2018-01-25T01:56:06.887Z,8.93
2018-01-25T01:58:34.284Z,8.80
2018-01-25T02:01:01.685Z,8.79
2018-01-25T02:03:29.163Z,8.76
2018-01-25T02:05:56.708Z,8.75
2018-01-25T02:08:24.104Z,8.73
2018-01-25T02:10:51.518Z,8.77
2018-01-25T02:13:18.971Z,8.76
2018-01-25T02:15:46.368Z,8.76
2018-01-25T02:18:13.770Z,8.79
2018-01-25T02:20:41.183Z,8.79
2018-01-25T02:23:08.582Z,8.86
2018-01-25T02:25:35.980Z,8.98
2018-01-25T02:28:03.381Z,8.88
2018-01-25T02:30:30.829Z,8.92
2018-01-25T02:32:58.236Z,8.94
2018-01-25T02:35:25.655Z,9.00
2018-01-25T02:37:53.054Z,9.07
2018-01-25T02:40:20.464Z,9.14
2018-01-25T02:42:48.076Z,9.14
2018-01-25T02:45:15.485Z,9.16
2018-01-25T02:47:42.881Z,9.17
2018-01-25T02:50:10.279Z,9.26
2018-01-25T02:52:37.687Z,9.41
2018-01-25T02:55:05.093Z,9.42
2018-01-25T02:57:32.497Z,9.31
2018-01-25T03:00:00.416Z,9.33
2018-01-25T03:02:27.817Z,9.28
2018-01-25T03:04:55.260Z,9.19
2018-01-25T03:07:22.896Z,9.19
2018-01-25T03:09:50.304Z,9.19
2018-01-25T03:12:17.714Z,9.20
2018-01-25T03:14:45.116Z,9.12
2018-01-25T03:17:12.806Z,9.03
2018-01-25T03:19:40.202Z,8.89
2018-01-25T03:22:07.627Z,8.81
2018-01-25T03:24:35.017Z,8.81
2018-01-25T03:27:02.604Z,8.92
2018-01-25T03:29:30.015Z,8.94
2018-01-25T03:31:57.416Z,9.06
2018-01-25T03:34:24.826Z,9.02
2018-01-25T03:36:52.259Z,9.06
2018-01-25T03:39:19.654Z,9.11
2018-01-25T03:41:47.069Z,9.07
2018-01-25T03:44:14.477Z,9.00
2018-01-25T03:46:42.041Z,9.05
2018-01-25T03:49:10.036Z,9.08
2018-01-25T03:51:37.538Z,9.09
2018-01-25T03:54:04.941Z,9.10
2018-01-25T03:59:06.083Z,9.13
2018-01-25T04:01:33.500Z,9.24
2018-01-25T04:04:00.898Z,9.39
2018-01-25T04:06:28.296Z,9.49
2018-01-25T04:08:56.444Z,9.48
2018-01-25T04:11:23.854Z,9.58
2018-01-25T04:13:51.249Z,9.48
2018-01-25T04:16:18.663Z,9.54
2018-01-25T04:18:46.064Z,9.61
2018-01-25T04:21:15.548Z,9.65
2018-01-25T04:23:42.943Z,9.56
2018-01-25T04:26:10.351Z,9.41
2018-01-25T04:28:37.906Z,9.42
2018-01-25T04:31:05.314Z,9.49
2018-01-25T04:33:33.614Z,9.43
2018-01-25T04:36:01.717Z,9.38
2018-01-25T04:38:29.156Z,9.43
2018-01-25T04:40:56.629Z,9.41
2018-01-25T04:43:24.034Z,9.40
2018-01-25T04:45:51.432Z,9.34
2018-01-25T04:48:18.884Z,9.41
2018-01-25T04:50:46.871Z,9.48
2018-01-25T04:53:14.276Z,9.42
2018-01-25T04:55:41.688Z,9.47
2018-01-25T04:58:09.124Z,9.57
2018-01-25T05:00:36.516Z,9.61
2018-01-25T05:03:03.928Z,9.68
2018-01-25T05:05:31.324Z,9.86
2018-01-25T05:07:58.734Z,9.83
2018-01-25T05:10:26.142Z,9.85
2018-01-25T05:12:53.539Z,9.91
2018-01-25T05:15:20.946Z,9.93
2018-01-25T05:17:51.852Z,10.00
2018-01-25T05:20:19.311Z,9.93
2018-01-25T05:22:46.699Z,9.91
2018-01-25T05:25:14.216Z,10.00
2018-01-25T05:27:41.612Z,9.99
2018-01-25T05:30:09.036Z,10.00
2018-01-25T05:32:36.424Z,10.01
2018-01-25T05:35:03.841Z,10.02
2018-01-25T05:37:31.314Z,10.04
2018-01-25T05:39:58.890Z,10.18
2018-01-25T05:42:26.284Z,10.18
2018-01-25T05:44:53.704Z,10.21
2018-01-25T05:47:21.104Z,10.27
2018-01-25T05:49:48.520Z,10.15
2018-01-25T05:52:15.917Z,9.98
2018-01-25T05:54:43.327Z,10.08
2018-01-25T05:57:10.730Z,10.10
2018-01-25T05:59:38.225Z,10.06
2018-01-25T06:02:05.628Z,9.93
2018-01-25T06:04:33.548Z,9.87
2018-01-25T06:07:00.952Z,9.80
2018-01-25T06:09:28.356Z,9.77
2018-01-25T06:11:55.858Z,9.84
2018-01-25T06:14:23.264Z,9.90
2018-01-25T06:16:50.666Z,9.79
2018-01-25T06:19:18.072Z,9.80
2018-01-25T06:21:45.472Z,9.72
2018-01-25T06:24:12.911Z,9.68
2018-01-25T06:26:40.307Z,9.63
2018-01-25T06:29:07.696Z,9.52
2018-01-25T06:31:35.100Z,9.30
2018-01-25T06:34:02.723Z,9.06
2018-01-25T06:36:30.129Z,9.28
2018-01-25T06:38:57.527Z,9.05
2018-01-25T06:41:24.932Z,9.07
2018-01-25T06:43:52.895Z,9.01
2018-01-25T06:46:20.326Z,8.90
2018-01-25T06:48:47.708Z,8.92
2018-01-25T06:51:15.120Z,9.05
2018-01-25T06:53:42.833Z,8.93
2018-01-25T06:56:10.269Z,8.93
2018-01-25T06:58:37.727Z,8.94
2018-01-25T07:01:05.088Z,8.99
2018-01-25T07:03:32.562Z,8.87
2018-01-25T07:06:00.120Z,8.80
2018-01-25T07:08:27.569Z,8.81
2018-01-25T07:10:55.427Z,8.84
2018-01-25T07:13:22.815Z,8.75
2018-01-25T07:15:50.387Z,8.76
2018-01-25T07:18:17.843Z,8.81
2018-01-25T07:20:45.253Z,8.93
2018-01-25T07:23:12.892Z,9.23
2018-01-25T07:25:40.304Z,9.23
2018-01-25T07:28:08.344Z,9.32
2018-01-25T07:30:35.753Z,9.34
2018-01-25T07:33:03.156Z,9.29
2018-01-25T07:35:31.292Z,9.28
2018-01-25T07:37:58.679Z,9.18
2018-01-25T07:40:26.079Z,9.17
2018-01-25T07:42:53.488Z,9.20
2018-01-25T07:45:20.879Z,9.28
2018-01-25T07:47:48.285Z,9.29
2018-01-25T07:50:15.693Z,9.23
2018-01-25T07:52:43.100Z,9.34
2018-01-25T07:55:10.504Z,9.22
2018-01-25T07:57:43.396Z,9.22
2018-01-25T08:00:10.817Z,9.13
2018-01-25T08:02:38.229Z,9.19
2018-01-25T08:05:05.625Z,9.19
2018-01-25T08:07:33.037Z,9.29
2018-01-25T08:10:00.439Z,9.39
2018-01-25T08:12:27.856Z,9.41
2018-01-25T08:14:55.265Z,9.41
2018-01-25T08:17:23.642Z,9.37
2018-01-25T08:19:51.033Z,9.53
2018-01-25T08:22:18.445Z,9.46
2018-01-25T08:24:45.850Z,9.42
2018-01-25T08:27:13.257Z,9.41
2018-01-25T08:29:40.665Z,9.48
2018-01-25T08:32:08.068Z,9.28
2018-01-25T08:34:35.471Z,9.26
2018-01-25T08:37:02.902Z,9.38
2018-01-25T08:39:30.300Z,9.37
2018-01-25T08:41:57.708Z,9.54
2018-01-25T08:44:25.114Z,9.62
2018-01-25T08:46:52.546Z,9.63
2018-01-25T08:49:19.963Z,9.75
2018-01-25T08:51:47.366Z,9.70
2018-01-25T08:54:14.765Z,9.76
2018-01-25T08:56:42.168Z,9.84
2018-01-25T08:59:09.631Z,9.87
2018-01-25T09:01:36.977Z,9.90
2018-01-25T09:04:04.390Z,9.97
2018-01-25T09:06:31.843Z,10.11
2018-01-25T09:08:59.208Z,9.99
2018-01-25T09:11:26.625Z,10.12
2018-01-25T09:13:55.122Z,10.28
2018-01-25T09:16:22.504Z,10.37
2018-01-25T09:18:49.961Z,10.50
2018-01-25T09:21:17.445Z,10.67
2018-01-25T09:23:44.830Z,10.67
2018-01-25T09:26:12.232Z,10.66
2018-01-25T09:28:39.640Z,10.92
2018-01-25T09:31:07.100Z,11.08
2018-01-25T09:33:34.696Z,11.28
2018-01-25T09:36:02.108Z,11.47
2018-01-25T09:38:29.505Z,11.50
2018-01-25T09:40:57.030Z,11.66
2018-01-25T09:43:24.484Z,11.72
2018-01-25T09:45:51.886Z,11.69
2018-01-25T09:48:19.398Z,11.78
2018-01-25T09:50:46.789Z,11.74
2018-01-25T09:53:14.209Z,11.87
2018-01-25T09:55:41.597Z,11.99
2018-01-25T09:58:09.006Z,11.92
2018-01-25T10:00:36.538Z,12.18
2018-01-25T10:03:03.803Z,12.23
2018-01-25T10:05:31.201Z,12.37
2018-01-25T10:07:58.616Z,12.52
2018-01-25T10:10:26.016Z,12.77
2018-01-25T10:12:53.408Z,12.74
2018-01-25T10:15:20.883Z,12.85
2018-01-25T10:17:48.272Z,13.12
2018-01-25T10:20:15.679Z,13.06
2018-01-25T10:22:43.072Z,13.16
2018-01-25T10:25:10.510Z,13.06
2018-01-25T10:27:37.942Z,13.02
2018-01-25T10:30:05.824Z,13.08
2018-01-25T10:32:33.268Z,13.07
2018-01-25T10:35:00.669Z,13.13
2018-01-25T10:37:28.068Z,13.10
2018-01-25T10:39:55.727Z,13.23
2018-01-25T10:42:23.123Z,13.12
2018-01-25T10:44:50.517Z,13.21
2018-01-25T10:47:17.920Z,13.23
2018-01-25T10:49:45.564Z,13.43
2018-01-25T10:52:12.963Z,13.50
2018-01-25T10:54:40.351Z,13.67
2018-01-25T10:57:07.812Z,13.56
2018-01-25T10:59:35.211Z,13.46
2018-01-25T11:02:17.307Z,13.53
2018-01-25T11:04:44.700Z,13.57
2018-01-25T11:07:12.104Z,13.44
2018-01-25T11:09:39.557Z,13.43
2018-01-25T11:12:06.962Z,13.47
2018-01-25T11:14:34.430Z,13.41
2018-01-25T11:17:01.828Z,13.53
2018-01-25T11:19:29.227Z,13.44
2018-01-25T11:21:56.628Z,13.55
2018-01-25T11:24:24.148Z,13.68
2018-01-25T11:26:51.548Z,13.90
2018-01-25T11:29:18.943Z,14.13
2018-01-25T11:31:46.343Z,14.16
2018-01-25T11:34:13.739Z,14.21
2018-01-25T11:36:41.140Z,14.04
2018-01-25T11:39:08.536Z,14.06
2018-01-25T11:41:35.944Z,14.22
2018-01-25T11:44:03.384Z,14.31
2018-01-25T11:46:30.794Z,14.34
2018-01-25T11:48:58.197Z,14.43
2018-01-25T11:51:25.607Z,14.43
2018-01-25T11:53:52.996Z,14.46
2018-01-25T11:56:20.483Z,14.41
2018-01-25T11:58:47.900Z,14.39
2018-01-25T12:01:15.296Z,14.58
2018-01-25T12:06:16.403Z,14.30
2018-01-25T12:08:43.764Z,14.14
2018-01-25T12:11:11.168Z,14.24
2018-01-25T12:13:38.572Z,14.19
2018-01-25T12:16:06.032Z,14.19
2018-01-25T12:18:33.454Z,14.05
2018-01-25T12:21:00.965Z,14.09
2018-01-25T12:23:28.444Z,13.90
2018-01-25T12:25:55.835Z,14.01
2018-01-25T12:28:23.247Z,13.87
2018-01-25T12:30:50.646Z,14.16
2018-01-25T12:33:18.049Z,14.46
2018-01-25T12:35:45.441Z,14.15
2018-01-25T12:38:12.851Z,13.98
2018-01-25T12:40:40.241Z,13.98
2018-01-25T12:43:07.635Z,14.15
2018-01-25T12:45:35.122Z,13.95
2018-01-25T12:48:02.526Z,13.89
2018-01-25T12:50:29.928Z,13.75
2018-01-25T12:52:57.339Z,13.81
2018-01-25T12:55:24.873Z,13.90
2018-01-25T12:57:52.258Z,14.13
2018-01-25T13:00:19.651Z,14.18
2018-01-25T13:02:47.064Z,14.17
2018-01-25T13:05:14.464Z,14.12
2018-01-25T13:07:41.868Z,14.25
2018-01-25T13:10:09.261Z,14.17
2018-01-25T13:12:36.665Z,14.28
2018-01-25T13:15:04.065Z,14.36
2018-01-25T13:17:31.649Z,14.49
2018-01-25T13:19:59.042Z,14.52
2018-01-25T13:22:26.428Z,14.43
2018-01-25T13:24:53.846Z,14.26
2018-01-25T13:27:21.230Z,14.32
2018-01-25T13:29:49.160Z,14.03
2018-01-25T13:32:19.377Z,14.06
2018-01-25T13:34:46.800Z,13.80
2018-01-25T13:37:14.192Z,13.78
2018-01-25T13:39:41.602Z,13.75
2018-01-25T13:42:08.990Z,13.67
2018-01-25T13:44:36.391Z,13.64
2018-01-25T13:47:03.813Z,13.82
2018-01-25T13:49:31.227Z,13.86
2018-01-25T13:51:58.625Z,13.74
2018-01-25T13:54:26.021Z,13.67
2018-01-25T13:56:53.484Z,13.68
2018-01-25T13:59:20.904Z,13.75
2018-01-25T14:01:48.296Z,13.69
2018-01-25T14:04:16.072Z,13.42
2018-01-25T14:06:44.064Z,13.24
2018-01-25T14:09:11.275Z,13.03
2018-01-25T14:11:38.665Z,12.99
2018-01-25T14:14:06.069Z,13.13
2018-01-25T14:16:33.467Z,13.30
2018-01-25T14:19:00.881Z,13.21
2018-01-25T14:21:28.383Z,13.26
2018-01-25T14:23:55.781Z,13.25
2018-01-25T14:26:23.238Z,13.33
2018-01-25T14:28:50.694Z,13.17
2018-01-25T14:31:18.095Z,13.08
2018-01-25T14:33:45.489Z,13.15
2018-01-25T14:36:12.958Z,13.21
2018-01-25T14:38:40.359Z,13.15
2018-01-25T14:41:07.804Z,12.90
2018-01-25T14:43:35.219Z,12.90
2018-01-25T14:46:02.629Z,12.82
2018-01-25T14:48:30.016Z,12.90
2018-01-25T14:50:57.416Z,12.75
2018-01-25T14:53:24.816Z,12.75
2018-01-25T14:55:52.224Z,12.68
2018-01-25T14:58:19.619Z,12.56
2018-01-25T15:00:47.024Z,12.51
2018-01-25T15:03:14.420Z,12.44
2018-01-25T15:05:41.828Z,12.39
2018-01-25T15:08:09.216Z,12.28
2018-01-25T15:10:36.691Z,12.24
2018-01-25T15:13:04.086Z,12.15
2018-01-25T15:15:31.484Z,12.25
2018-01-25T15:17:58.887Z,12.09
2018-01-25T15:20:26.275Z,11.99
2018-01-25T15:22:53.680Z,12.08
2018-01-25T15:25:26.668Z,11.91
2018-01-25T15:27:54.148Z,11.85
2018-01-25T15:30:21.592Z,11.73
2018-01-25T15:32:49.056Z,11.69
2018-01-25T15:35:16.460Z,11.82
2018-01-25T15:37:44.780Z,11.68
2018-01-25T15:40:12.176Z,11.70
2018-01-25T15:42:39.844Z,11.64
2018-01-25T15:45:07.221Z,11.60
2018-01-25T15:47:34.658Z,11.57
2018-01-25T15:50:02.021Z,11.44
2018-01-25T15:52:29.424Z,11.35
2018-01-25T15:54:56.828Z,11.33
2018-01-25T15:57:24.234Z,11.29
2018-01-25T15:59:51.628Z,11.15
2018-01-25T16:02:19.097Z,11.15
2018-01-25T16:04:46.506Z,11.06
2018-01-25T16:07:13.906Z,11.02
2018-01-25T16:09:41.323Z,11.06
2018-01-25T16:12:08.792Z,10.95
2018-01-25T16:14:36.200Z,10.90
2018-01-25T16:17:03.604Z,10.94
2018-01-25T16:19:31.019Z,11.11
2018-01-25T16:21:58.461Z,11.05
2018-01-25T16:24:25.865Z,10.90
2018-01-25T16:26:53.300Z,10.82
2018-01-25T16:29:20.704Z,10.75
2018-01-25T16:31:48.104Z,10.82
2018-01-25T16:34:15.505Z,10.91
2018-01-25T16:36:42.901Z,10.86
2018-01-25T16:39:10.312Z,10.86
2018-01-25T16:41:37.714Z,10.84
2018-01-25T16:44:05.115Z,10.81
2018-01-25T16:46:32.558Z,10.76
2018-01-25T16:48:59.956Z,10.69
2018-01-25T16:51:27.340Z,10.64
2018-01-25T16:53:54.756Z,10.42
2018-01-25T16:56:22.158Z,10.42
2018-01-25T16:58:49.570Z,10.50
2018-01-25T17:01:16.972Z,10.40
2018-01-25T17:03:44.451Z,10.38
2018-01-25T17:06:11.883Z,10.41
2018-01-25T17:08:39.460Z,10.43
2018-01-25T17:11:07.659Z,10.61
2018-01-25T17:13:35.061Z,10.44
2018-01-25T17:16:02.456Z,10.39
2018-01-25T17:18:29.925Z,10.38
2018-01-25T17:20:57.369Z,10.13
2018-01-25T17:23:24.838Z,10.07
2018-01-25T17:25:52.220Z,10.13
2018-01-25T17:28:19.675Z,9.97
2018-01-25T17:30:47.115Z,9.80
2018-01-25T17:33:14.554Z,9.75
2018-01-25T17:35:42.004Z,9.83
2018-01-25T17:38:09.380Z,9.84
2018-01-25T17:40:36.789Z,9.75
2018-01-25T17:43:04.188Z,9.80
2018-01-25T17:45:31.756Z,9.83
2018-01-25T17:50:32.960Z,9.94
2018-01-25T17:53:00.364Z,9.90
2018-01-25T17:55:28.367Z,9.77
2018-01-25T17:57:55.979Z,9.67
2018-01-25T18:00:23.430Z,9.65
2018-01-25T18:02:50.816Z,9.62
2018-01-25T18:05:18.280Z,9.65
2018-01-25T18:07:45.680Z,9.81
2018-01-25T18:10:13.149Z,10.00
2018-01-25T18:12:40.557Z,10.07
2018-01-25T18:15:08.025Z,10.02
2018-01-25T18:17:35.435Z,10.03
2018-01-25T18:20:02.844Z,10.06
2018-01-25T18:22:30.244Z,10.09
2018-01-25T18:24:58.287Z,10.07
2018-01-25T18:27:25.728Z,10.13
2018-01-25T18:29:53.177Z,10.22
2018-01-25T18:32:20.573Z,10.43
2018-01-25T18:34:47.999Z,10.38
2018-01-25T18:37:15.396Z,10.19
2018-01-25T18:39:42.881Z,10.31
2018-01-25T18:42:10.340Z,10.20
2018-01-25T18:44:37.737Z,10.23
2018-01-25T18:47:05.145Z,10.20
2018-01-25T18:49:32.556Z,10.27
2018-01-25T18:52:00.010Z,10.21
2018-01-25T18:54:27.666Z,10.16
2018-01-25T18:56:55.097Z,10.07
2018-01-25T18:59:22.547Z,10.00
2018-01-25T19:01:49.975Z,9.94
2018-01-25T19:04:17.436Z,9.98
2018-01-25T19:06:44.889Z,9.90
2018-01-25T19:09:12.322Z,9.84
2018-01-25T19:11:39.793Z,9.83
2018-01-25T19:14:07.231Z,9.90
2018-01-25T19:16:34.728Z,9.92
2018-01-25T19:19:02.114Z,9.93
2018-01-25T19:21:29.715Z,9.97
2018-01-25T19:23:57.100Z,10.01
2018-01-25T19:26:24.562Z,10.04
2018-01-25T19:28:52.012Z,10.01
2018-01-25T19:31:19.469Z,10.17
2018-01-25T19:33:47.011Z,10.22
2018-01-25T19:36:14.659Z,10.19
2018-01-25T19:38:42.765Z,10.10
2018-01-25T19:41:10.335Z,10.16
2018-01-25T19:43:37.784Z,10.20
2018-01-25T19:46:05.395Z,10.22
2018-01-25T19:48:32.836Z,10.13
2018-01-25T19:51:00.299Z,10.06
2018-01-25T19:53:27.805Z,10.04
2018-01-25T19:55:55.275Z,10.07
2018-01-25T19:58:22.716Z,10.16
2018-01-25T20:00:50.177Z,10.11
2018-01-25T20:03:17.644Z,10.15
2018-01-25T20:05:45.032Z,10.13
2018-01-25T20:08:12.752Z,10.20
2018-01-25T20:10:40.338Z,10.16
2018-01-25T20:13:07.748Z,10.18
2018-01-25T20:15:35.202Z,10.16
2018-01-25T20:18:02.608Z,10.13
2018-01-25T20:20:30.062Z,10.13
2018-01-25T20:22:57.576Z,10.17
2018-01-25T20:25:25.244Z,10.23
2018-01-25T20:27:53.345Z,10.16
2018-01-25T20:30:20.795Z,10.42
2018-01-25T20:32:49.109Z,10.36
2018-01-25T20:35:16.537Z,10.20
2018-01-25T20:37:44.823Z,10.23
2018-01-25T20:40:12.280Z,10.20
2018-01-25T20:42:39.741Z,10.17
2018-01-25T20:45:07.343Z,10.11
2018-01-25T20:47:35.568Z,10.07
2018-01-25T20:50:03.024Z,10.10
2018-01-25T20:52:30.551Z,10.12
2018-01-25T20:54:57.945Z,10.19
2018-01-25T20:57:25.409Z,10.26
2018-01-25T20:59:52.860Z,10.11
2018-01-25T21:02:21.423Z,10.18
2018-01-25T21:04:48.865Z,10.15
2018-01-25T21:07:16.302Z,10.03
2018-01-25T21:09:43.753Z,10.19
2018-01-25T21:12:11.185Z,10.15
2018-01-25T21:14:38.589Z,10.21
2018-01-25T21:17:05.992Z,10.27
2018-01-25T21:19:33.552Z,10.04
2018-01-25T21:22:00.945Z,9.99
2018-01-25T21:24:28.377Z,9.92
2018-01-25T21:26:55.787Z,9.94
2018-01-25T21:29:23.197Z,10.03
2018-01-25T21:31:50.595Z,10.04
2018-01-25T21:34:18.289Z,9.98
2018-01-25T21:36:45.701Z,10.04
2018-01-25T21:39:13.399Z,9.98
2018-01-25T21:41:41.543Z,10.08
2018-01-25T21:44:08.987Z,10.05
2018-01-25T21:46:36.439Z,9.90
2018-01-25T21:49:03.935Z,9.88
2018-01-25T21:51:31.731Z,9.99
2018-01-25T21:54:00.124Z,10.10
2018-01-25T21:56:27.569Z,9.99
2018-01-25T21:58:54.959Z,9.99
2018-01-25T22:02:40.151Z,9.92
2018-01-25T22:05:08.307Z,9.85
2018-01-25T22:07:35.791Z,9.97
2018-01-25T22:10:03.308Z,9.93
2018-01-25T22:12:30.756Z,9.93
2018-01-25T22:14:58.158Z,9.88
2018-01-25T22:17:25.545Z,9.82
2018-01-25T22:19:53.192Z,9.84
2018-01-25T22:22:20.641Z,9.75
2018-01-25T22:24:48.041Z,9.84
2018-01-25T22:27:15.427Z,9.96
2018-01-25T22:29:43.350Z,10.18
2018-01-25T22:32:10.792Z,10.46
2018-01-25T22:34:38.274Z,10.56
2018-01-25T22:37:05.673Z,10.67
2018-01-25T22:39:33.128Z,10.80
2018-01-25T22:42:00.687Z,10.87
2018-01-25T22:44:28.074Z,10.82
2018-01-25T22:46:55.524Z,10.80
2018-01-25T22:49:22.908Z,10.83
2018-01-25T22:51:50.371Z,10.75
2018-01-25T22:54:17.881Z,10.74
2018-01-25T22:56:45.296Z,10.63
2018-01-25T22:59:12.742Z,10.65
2018-01-25T23:01:40.148Z,10.65
2018-01-25T23:04:07.649Z,10.76
2018-01-25T23:06:35.044Z,10.75
2018-01-25T23:09:02.445Z,10.84
2018-01-25T23:11:29.901Z,10.76
2018-01-25T23:13:57.321Z,10.55
2018-01-25T23:16:24.736Z,10.49
2018-01-25T23:18:52.209Z,10.52
2018-01-25T23:21:19.652Z,10.45
2018-01-25T23:23:47.052Z,10.55
2018-01-25T23:26:14.464Z,10.61
2018-01-25T23:28:41.980Z,10.60
2018-01-25T23:31:09.406Z,10.42
2018-01-25T23:33:36.806Z,10.32
2018-01-25T23:36:04.210Z,10.34
2018-01-25T23:38:34.973Z,10.35
2018-01-25T23:41:02.389Z,10.28
2018-01-25T23:43:29.837Z,10.27
2018-01-25T23:45:57.244Z,10.02
2018-01-25T23:48:24.910Z,9.98
2018-01-25T23:50:52.332Z,9.93
2018-01-25T23:53:19.729Z,9.93
2018-01-25T23:55:47.139Z,9.92
2018-01-25T23:58:14.529Z,9.90
